createdAt,value
2019-05-05T00:00:35.123Z,0.00
2019-05-05T00:01:34.398Z,0.00
2019-05-05T00:02:34.221Z,0.00
2019-05-05T00:03:34.287Z,0.00
2019-05-05T00:04:34.733Z,0.00
2019-05-05T00:05:35.219Z,0.00
2019-05-05T00:06:34.236Z,0.00
2019-05-05T00:07:34.817Z,0.00
2019-05-05T00:08:32.741Z,0.00
2019-05-05T00:09:34.731Z,0.00
2019-05-05T00:10:34.663Z,0.00
2019-05-05T00:11:35.014Z,0.00
2019-05-05T00:12:34.349Z,0.00
2019-05-05T00:13:34.566Z,0.00
2019-05-05T00:14:32.687Z,0.00
2019-05-05T00:15:34.449Z,0.00
2019-05-05T00:16:32.535Z,0.00
2019-05-05T00:17:34.268Z,0.00
2019-05-05T00:18:34.534Z,0.00
2019-05-05T00:19:33.993Z,0.00
2019-05-05T00:20:34.405Z,0.00
2019-05-05T00:22:32.382Z,0.00
2019-05-05T00:23:34.393Z,0.00
2019-05-05T00:24:34.872Z,0.00
2019-05-05T00:25:34.242Z,0.00
2019-05-05T00:28:32.232Z,0.00
2019-05-05T00:29:32.218Z,0.00
2019-05-05T00:30:34.323Z,0.00
2019-05-05T00:31:32.163Z,0.00
2019-05-05T00:32:32.121Z,0.00
2019-05-05T00:33:34.217Z,0.00
2019-05-05T00:34:32.375Z,0.00
2019-05-05T00:35:32.049Z,0.00
2019-05-05T00:36:32.365Z,0.00
2019-05-05T00:37:32.090Z,0.00
2019-05-05T00:38:32.016Z,0.00
2019-05-05T00:39:34.337Z,0.00
2019-05-05T00:41:31.997Z,0.00
2019-05-05T00:42:31.864Z,0.00
2019-05-05T00:43:34.408Z,0.00
2019-05-05T00:44:31.820Z,0.00
2019-05-05T00:45:31.793Z,0.00
2019-05-05T00:46:31.771Z,0.00
2019-05-05T00:47:31.729Z,0.00
2019-05-05T00:48:31.707Z,0.00
2019-05-05T00:50:31.942Z,0.00
2019-05-05T00:51:31.872Z,0.00
2019-05-05T00:52:31.720Z,0.00
2019-05-05T00:54:31.644Z,0.00
2019-05-05T00:55:31.554Z,0.00
2019-05-05T00:56:31.492Z,0.00
2019-05-05T00:58:31.550Z,0.00
2019-05-05T01:00:31.385Z,0.00
2019-05-05T01:01:31.363Z,0.00
2019-05-05T01:02:31.442Z,0.00
2019-05-05T01:03:31.308Z,0.00
2019-05-05T01:04:31.296Z,0.00
2019-05-05T01:05:31.464Z,0.00
2019-05-05T01:06:31.629Z,0.00
2019-05-05T01:07:31.402Z,0.00
2019-05-05T01:08:31.195Z,0.00
2019-05-05T01:09:31.170Z,0.00
2019-05-05T01:10:31.229Z,0.00
2019-05-05T01:11:31.103Z,0.00
2019-05-05T01:12:31.086Z,0.00
2019-05-05T01:15:31.291Z,0.00
2019-05-05T01:16:30.975Z,0.00
2019-05-05T01:17:30.953Z,0.00
2019-05-05T01:18:30.915Z,0.00
2019-05-05T01:19:31.092Z,0.00
2019-05-05T01:20:30.888Z,0.00
2019-05-05T01:21:30.850Z,0.00
2019-05-05T01:22:31.354Z,0.00
2019-05-05T01:23:30.787Z,0.00
2019-05-05T01:25:30.742Z,0.00
2019-05-05T01:26:30.875Z,0.00
2019-05-05T01:27:30.685Z,0.00
2019-05-05T01:28:30.944Z,0.00
2019-05-05T01:29:30.623Z,0.00
2019-05-05T01:31:30.577Z,0.00
2019-05-05T01:32:30.541Z,0.00
2019-05-05T01:33:30.514Z,0.00
2019-05-05T01:34:30.742Z,0.00
2019-05-05T01:36:30.434Z,0.00
2019-05-05T01:40:30.629Z,0.00
2019-05-05T01:41:30.305Z,0.00
2019-05-05T01:43:30.254Z,0.00
2019-05-05T01:44:30.534Z,0.00
2019-05-05T01:45:30.202Z,0.00
2019-05-05T01:46:30.524Z,0.00
2019-05-05T01:47:30.248Z,0.00
2019-05-05T01:50:30.063Z,0.00
2019-05-05T01:52:31.031Z,0.00
2019-05-05T01:53:30.235Z,0.00
2019-05-05T01:54:29.968Z,0.00
2019-05-05T01:55:30.239Z,0.00
2019-05-05T01:56:29.904Z,0.00
2019-05-05T01:57:29.880Z,0.00
2019-05-05T01:58:29.850Z,0.00
2019-05-05T01:59:30.131Z,0.00
2019-05-05T02:00:29.801Z,0.00
2019-05-05T02:01:29.771Z,0.00
2019-05-05T02:02:30.142Z,0.00
2019-05-05T02:03:29.819Z,0.00
2019-05-05T02:04:29.793Z,0.00
2019-05-05T02:05:29.766Z,0.00
2019-05-05T02:06:29.941Z,0.00
2019-05-05T02:07:29.711Z,0.00
2019-05-05T02:08:29.587Z,0.00
2019-05-05T02:09:29.559Z,0.00
2019-05-05T02:10:29.635Z,0.00
2019-05-05T02:11:29.705Z,0.00
2019-05-05T02:12:29.480Z,0.00
2019-05-05T02:13:29.854Z,0.00
2019-05-05T02:14:29.439Z,0.00
2019-05-05T02:15:29.404Z,0.00
2019-05-05T02:16:29.516Z,0.00
2019-05-05T02:17:29.459Z,0.00
2019-05-05T02:19:29.395Z,0.00
2019-05-05T02:20:31.338Z,0.00
2019-05-05T02:21:29.491Z,0.00
2019-05-05T02:22:29.368Z,0.00
2019-05-05T02:24:29.360Z,0.00
2019-05-05T02:25:29.287Z,0.00
2019-05-05T02:26:29.241Z,0.00
2019-05-05T02:27:29.472Z,0.00
2019-05-05T02:28:29.201Z,0.00
2019-05-05T02:29:29.129Z,0.00
2019-05-05T02:30:29.157Z,0.00
2019-05-05T02:31:28.978Z,0.00
2019-05-05T02:32:29.049Z,0.00
2019-05-05T02:33:28.921Z,0.00
2019-05-05T02:34:29.203Z,0.00
2019-05-05T02:35:28.879Z,0.00
2019-05-05T02:36:28.841Z,0.00
2019-05-05T02:37:28.832Z,0.00
2019-05-05T02:38:28.793Z,0.00
2019-05-05T02:39:28.882Z,0.00
2019-05-05T02:41:28.767Z,0.00
2019-05-05T02:42:29.102Z,0.00
2019-05-05T02:43:28.665Z,0.00
2019-05-05T02:44:28.929Z,0.00
2019-05-05T02:45:28.636Z,0.00
2019-05-05T02:46:28.577Z,0.00
2019-05-05T02:47:28.849Z,0.00
2019-05-05T02:48:28.530Z,0.00
2019-05-05T02:49:28.821Z,0.00
2019-05-05T02:50:28.478Z,0.00
2019-05-05T02:51:28.454Z,0.00
2019-05-05T02:52:28.535Z,0.00
2019-05-05T02:53:28.495Z,0.00
2019-05-05T02:54:28.485Z,0.00
2019-05-05T02:55:28.720Z,0.00
2019-05-05T02:56:28.315Z,0.00
2019-05-05T02:57:28.288Z,0.00
2019-05-05T02:58:28.265Z,0.00
2019-05-05T02:59:28.233Z,0.00
2019-05-05T03:00:28.508Z,0.00
2019-05-05T03:01:28.478Z,0.00
2019-05-05T03:02:28.154Z,0.00
2019-05-05T03:03:28.327Z,0.00
2019-05-05T03:04:28.095Z,0.00
2019-05-05T03:05:28.076Z,0.00
2019-05-05T03:06:28.046Z,0.00
2019-05-05T03:07:28.325Z,0.00
2019-05-05T03:08:27.991Z,0.00
2019-05-05T03:10:27.940Z,0.00
2019-05-05T03:11:27.914Z,0.00
2019-05-05T03:12:27.882Z,0.00
2019-05-05T03:15:28.105Z,0.00
2019-05-05T03:16:27.783Z,0.00
2019-05-05T03:17:27.749Z,0.00
2019-05-05T03:18:27.722Z,0.00
2019-05-05T03:19:27.704Z,0.00
2019-05-05T03:20:27.688Z,0.00
2019-05-05T03:21:27.943Z,0.00
2019-05-05T03:22:27.616Z,0.00
2019-05-05T03:23:27.993Z,0.00
2019-05-05T03:24:27.566Z,0.00
2019-05-05T03:25:27.642Z,0.00
2019-05-05T03:26:27.510Z,0.00
2019-05-05T03:27:27.480Z,0.00
2019-05-05T03:28:27.760Z,0.00
2019-05-05T03:29:27.630Z,0.00
2019-05-05T03:30:27.399Z,0.00
2019-05-05T03:31:27.375Z,0.00
2019-05-05T03:33:27.332Z,0.00
2019-05-05T03:34:27.311Z,0.00
2019-05-05T03:35:27.572Z,5.63
2019-05-05T03:36:27.537Z,5.63
2019-05-05T03:37:27.311Z,5.63
2019-05-05T03:39:27.161Z,5.63
2019-05-05T03:40:27.129Z,5.63
2019-05-05T03:41:27.402Z,5.63
2019-05-05T03:42:27.380Z,5.63
2019-05-05T03:43:27.163Z,5.63
2019-05-05T03:44:27.019Z,11.25
2019-05-05T03:45:27.203Z,11.25
2019-05-05T03:46:26.969Z,11.25
2019-05-05T03:47:26.983Z,11.25
2019-05-05T03:48:26.968Z,11.25
2019-05-05T03:49:27.188Z,11.25
2019-05-05T03:50:26.976Z,11.25
2019-05-05T03:51:26.952Z,16.88
2019-05-05T03:52:26.808Z,16.88
2019-05-05T03:53:26.788Z,16.88
2019-05-05T03:54:26.753Z,16.88
2019-05-05T03:55:26.729Z,16.88
2019-05-05T03:56:27.030Z,16.88
2019-05-05T03:57:26.674Z,22.50
2019-05-05T03:58:26.646Z,22.50
2019-05-05T03:59:26.620Z,22.50
2019-05-05T04:00:26.595Z,22.50
2019-05-05T04:01:26.658Z,22.50
2019-05-05T04:02:26.536Z,28.13
2019-05-05T04:03:26.816Z,28.13
2019-05-05T04:04:26.509Z,28.13
2019-05-05T04:05:26.487Z,28.13
2019-05-05T04:06:26.425Z,28.13
2019-05-05T04:08:26.373Z,33.75
2019-05-05T04:09:26.342Z,33.75
2019-05-05T04:10:26.622Z,33.75
2019-05-05T04:11:26.372Z,33.75
2019-05-05T04:12:26.260Z,39.38
2019-05-05T04:13:26.234Z,39.38
2019-05-05T04:14:26.217Z,39.38
2019-05-05T04:16:26.456Z,45.00
2019-05-05T04:17:26.544Z,45.00
2019-05-05T04:18:26.450Z,45.00
2019-05-05T04:19:26.088Z,45.00
2019-05-05T04:20:26.185Z,45.00
2019-05-05T04:21:33.498Z,50.63
2019-05-05T04:22:26.303Z,50.63
2019-05-05T04:23:25.969Z,50.63
2019-05-05T04:24:25.936Z,50.63
2019-05-05T04:25:25.909Z,50.63
2019-05-05T04:26:25.890Z,56.25
2019-05-05T04:27:25.859Z,56.25
2019-05-05T04:28:26.128Z,56.25
2019-05-05T04:29:25.902Z,56.25
2019-05-05T04:30:25.777Z,56.25
2019-05-05T04:31:25.744Z,61.88
2019-05-05T04:32:25.838Z,61.88
2019-05-05T04:33:25.981Z,61.88
2019-05-05T04:35:25.756Z,61.88
2019-05-05T04:36:25.709Z,67.50
2019-05-05T04:37:25.620Z,67.50
2019-05-05T04:38:25.859Z,67.50
2019-05-05T04:40:25.504Z,67.50
2019-05-05T04:41:25.776Z,73.13
2019-05-05T04:42:25.459Z,73.13
2019-05-05T04:43:25.432Z,73.13
2019-05-05T04:44:25.475Z,73.13
2019-05-05T04:46:25.589Z,78.75
2019-05-05T04:47:25.570Z,78.75
2019-05-05T04:48:25.292Z,78.75
2019-05-05T04:49:25.278Z,78.75
2019-05-05T04:50:25.959Z,78.75
2019-05-05T04:51:25.213Z,78.75
2019-05-05T04:52:25.190Z,84.38
2019-05-05T04:53:25.256Z,84.38
2019-05-05T04:55:25.104Z,84.38
2019-05-05T04:56:25.379Z,84.38
2019-05-05T04:57:25.060Z,90.00
2019-05-05T04:58:25.031Z,90.00
2019-05-05T04:59:25.004Z,90.00
2019-05-05T05:00:25.010Z,90.00
2019-05-05T05:01:25.292Z,90.00
2019-05-05T05:02:24.918Z,90.00
2019-05-05T05:03:24.990Z,95.63
2019-05-05T05:05:25.174Z,95.63
2019-05-05T05:06:24.822Z,95.63
2019-05-05T05:08:24.887Z,95.63
2019-05-05T05:09:25.046Z,101.25
2019-05-05T05:10:24.726Z,101.25
2019-05-05T05:11:24.742Z,101.25
2019-05-05T05:12:24.753Z,101.25
2019-05-05T05:13:24.694Z,101.25
2019-05-05T05:14:24.849Z,101.25
2019-05-05T05:15:24.687Z,101.25
2019-05-05T05:16:24.849Z,106.88
2019-05-05T05:17:25.076Z,106.88
2019-05-05T05:18:24.497Z,106.88
2019-05-05T05:19:24.476Z,106.88
2019-05-05T05:20:24.709Z,106.88
2019-05-05T05:21:24.436Z,106.88
2019-05-05T05:22:24.495Z,112.50
2019-05-05T05:23:24.867Z,112.50
2019-05-05T05:24:24.439Z,112.50
2019-05-05T05:25:24.315Z,112.50
2019-05-05T05:26:24.338Z,112.50
2019-05-05T05:27:24.584Z,112.50
2019-05-05T05:29:24.232Z,118.13
2019-05-05T05:30:24.484Z,118.13
2019-05-05T05:31:24.511Z,118.13
2019-05-05T05:33:24.107Z,118.13
2019-05-05T05:34:24.099Z,123.75
2019-05-05T05:36:24.804Z,123.75
2019-05-05T05:37:24.405Z,123.75
2019-05-05T05:38:24.300Z,123.75
2019-05-05T05:39:24.438Z,123.75
2019-05-05T05:40:24.026Z,123.75
2019-05-05T05:41:23.960Z,129.38
2019-05-05T05:42:24.203Z,129.38
2019-05-05T05:43:25.390Z,129.38
2019-05-05T05:44:26.390Z,129.38
2019-05-05T05:45:23.872Z,129.38
2019-05-05T05:46:24.121Z,129.38
2019-05-05T05:47:24.461Z,135.00
2019-05-05T05:48:23.844Z,135.00
2019-05-05T05:49:24.231Z,135.00
2019-05-05T05:50:24.542Z,135.00
2019-05-05T05:52:24.225Z,135.00
2019-05-05T05:53:24.415Z,135.00
2019-05-05T05:56:24.941Z,140.63
2019-05-05T05:57:24.116Z,140.63
2019-05-05T05:58:24.498Z,140.63
2019-05-05T05:59:24.722Z,140.63
2019-05-05T06:00:23.817Z,146.25
2019-05-05T06:01:24.026Z,146.25
2019-05-05T06:02:24.223Z,146.25
2019-05-05T06:03:24.554Z,146.25
2019-05-05T06:04:23.628Z,146.25
2019-05-05T06:05:23.905Z,146.25
2019-05-05T06:06:24.158Z,146.25
2019-05-05T06:07:24.507Z,151.88
2019-05-05T06:08:24.275Z,151.88
2019-05-05T06:09:23.781Z,151.88
2019-05-05T06:10:26.673Z,151.88
2019-05-05T06:11:23.872Z,151.88
2019-05-05T06:12:24.564Z,151.88
2019-05-05T06:13:24.174Z,151.88
2019-05-05T06:14:24.708Z,151.88
2019-05-05T06:15:24.458Z,157.50
2019-05-05T06:16:23.556Z,157.50
2019-05-05T06:17:23.753Z,157.50
2019-05-05T06:18:24.387Z,157.50
2019-05-05T06:19:24.634Z,157.50
2019-05-05T06:20:23.838Z,157.50
2019-05-05T06:22:29.301Z,163.13
2019-05-05T06:23:24.030Z,163.13
2019-05-05T06:24:24.003Z,163.13
2019-05-05T06:26:24.044Z,163.13
2019-05-05T06:27:23.638Z,163.13
2019-05-05T06:28:23.686Z,168.75
2019-05-05T06:29:23.901Z,168.75
2019-05-05T06:30:24.419Z,168.75
2019-05-05T06:32:23.830Z,168.75
2019-05-05T06:33:24.116Z,168.75
2019-05-05T06:35:24.410Z,174.38
2019-05-05T06:36:23.447Z,174.38
2019-05-05T06:37:23.827Z,174.38
2019-05-05T06:38:24.179Z,174.38
2019-05-05T06:39:24.148Z,174.38
2019-05-05T06:40:23.365Z,180.00
2019-05-05T06:41:23.713Z,180.00
2019-05-05T06:42:23.670Z,180.00
2019-05-05T06:43:23.724Z,180.00
2019-05-05T06:44:24.622Z,180.00
2019-05-05T06:45:23.877Z,180.00
2019-05-05T06:46:23.631Z,185.63
2019-05-05T06:47:23.697Z,185.63
2019-05-05T06:48:23.720Z,185.63
2019-05-05T06:49:23.787Z,185.63
2019-05-05T06:50:24.193Z,185.63
2019-05-05T06:51:24.386Z,185.63
2019-05-05T06:52:24.735Z,185.63
2019-05-05T06:53:23.922Z,185.63
2019-05-05T06:55:22.224Z,191.25
2019-05-05T06:57:24.025Z,191.25
2019-05-05T06:59:24.336Z,191.25
2019-05-05T07:00:24.071Z,196.88
2019-05-05T07:01:22.045Z,196.88
2019-05-05T07:02:23.680Z,196.88
2019-05-05T07:05:23.562Z,196.88
2019-05-05T07:06:23.806Z,196.88
2019-05-05T07:07:23.637Z,202.50
2019-05-05T07:08:24.070Z,202.50
2019-05-05T07:09:24.479Z,202.50
2019-05-05T07:10:21.765Z,202.50
2019-05-05T07:11:23.652Z,202.50
2019-05-05T07:13:21.811Z,208.13
2019-05-05T07:14:23.559Z,208.13
2019-05-05T07:15:23.732Z,208.13
2019-05-05T07:16:21.628Z,208.13
2019-05-05T07:17:21.601Z,208.13
2019-05-05T07:18:21.636Z,213.75
2019-05-05T07:20:21.546Z,213.75
2019-05-05T07:24:23.707Z,247.50
2019-05-05T07:25:21.565Z,253.13
2019-05-05T07:26:23.668Z,264.38
2019-05-05T07:27:21.454Z,270.00
2019-05-05T07:29:23.736Z,275.63
2019-05-05T07:30:21.632Z,275.63
2019-05-05T07:31:21.299Z,275.63
2019-05-05T07:32:21.370Z,275.63
2019-05-05T07:33:23.763Z,275.63
2019-05-05T07:34:21.332Z,281.25
2019-05-05T07:35:21.207Z,281.25
2019-05-05T07:36:21.288Z,281.25
2019-05-05T07:37:23.702Z,286.88
2019-05-05T07:38:21.251Z,286.88
2019-05-05T07:39:21.134Z,292.50
2019-05-05T07:40:21.697Z,292.50
2019-05-05T07:41:21.122Z,292.50
2019-05-05T07:42:21.072Z,292.50
2019-05-05T07:43:21.056Z,292.50
2019-05-05T07:44:26.627Z,298.13
2019-05-05T07:45:25.114Z,298.13
2019-05-05T07:46:21.130Z,303.75
2019-05-05T07:47:20.984Z,303.75
2019-05-05T07:49:21.040Z,309.38
2019-05-05T07:50:29.464Z,309.38
2019-05-05T07:52:20.895Z,309.38
2019-05-05T07:53:21.018Z,309.38
2019-05-05T07:54:21.084Z,320.63
2019-05-05T07:56:23.649Z,320.63
2019-05-05T07:57:20.819Z,320.63
2019-05-05T07:59:21.113Z,326.25
2019-05-05T08:01:20.819Z,326.25
2019-05-05T08:02:23.517Z,331.88
2019-05-05T08:03:23.497Z,348.75
2019-05-05T08:04:20.670Z,371.25
2019-05-05T08:05:21.121Z,376.88
2019-05-05T08:06:20.640Z,365.63
2019-05-05T08:07:20.625Z,320.63
2019-05-05T08:09:22.644Z,354.38
2019-05-05T08:10:20.579Z,360.00
2019-05-05T08:12:21.388Z,360.00
2019-05-05T08:13:20.542Z,354.38
2019-05-05T08:14:20.515Z,354.38
2019-05-05T08:15:20.500Z,320.63
2019-05-05T08:16:20.971Z,365.63
2019-05-05T08:17:20.865Z,365.63
2019-05-05T08:18:20.760Z,371.25
2019-05-05T08:19:20.493Z,371.25
2019-05-05T08:20:20.459Z,371.25
2019-05-05T08:21:20.402Z,376.88
2019-05-05T08:22:20.802Z,376.88
2019-05-05T08:23:30.303Z,393.75
2019-05-05T08:24:20.384Z,399.38
2019-05-05T08:25:34.504Z,405.00
2019-05-05T08:26:20.392Z,421.88
2019-05-05T08:27:21.061Z,455.63
2019-05-05T08:28:20.602Z,489.38
2019-05-05T08:29:20.353Z,478.13
2019-05-05T08:30:20.343Z,466.88
2019-05-05T08:31:20.857Z,455.63
2019-05-05T08:32:20.260Z,461.25
2019-05-05T08:33:20.263Z,461.25
2019-05-05T08:35:20.556Z,466.88
2019-05-05T08:36:20.250Z,478.13
2019-05-05T08:37:20.353Z,495.00
2019-05-05T08:39:21.603Z,551.25
2019-05-05T08:40:20.143Z,590.63
2019-05-05T08:41:20.490Z,624.38
2019-05-05T08:42:20.130Z,663.75
2019-05-05T08:43:20.104Z,697.50
2019-05-05T08:44:20.290Z,736.88
2019-05-05T08:45:20.075Z,793.13
2019-05-05T08:46:20.069Z,793.13
2019-05-05T08:47:20.397Z,832.50
2019-05-05T08:49:20.316Z,405.00
2019-05-05T08:50:20.024Z,461.25
2019-05-05T08:51:20.022Z,3380.63
2019-05-05T08:52:20.020Z,4005.00
2019-05-05T08:53:20.255Z,961.88
2019-05-05T08:54:19.944Z,1170.00
2019-05-05T08:55:19.930Z,573.75
2019-05-05T08:56:19.963Z,613.13
2019-05-05T08:57:20.001Z,4308.75
2019-05-05T08:59:20.142Z,4224.38
2019-05-05T09:00:19.891Z,3886.88
2019-05-05T09:01:19.852Z,3937.50
2019-05-05T09:02:19.861Z,4252.50
2019-05-05T09:03:19.851Z,4550.63
2019-05-05T09:04:19.870Z,4848.75
2019-05-05T09:05:19.805Z,4843.13
2019-05-05T09:06:20.086Z,2221.88
2019-05-05T09:07:19.981Z,855.00
2019-05-05T09:08:19.766Z,4792.50
2019-05-05T09:09:19.754Z,1732.50
2019-05-05T09:10:19.861Z,759.38
2019-05-05T09:11:19.721Z,556.88
2019-05-05T09:12:19.722Z,534.38
2019-05-05T09:13:19.990Z,517.50
2019-05-05T09:14:19.679Z,528.75
2019-05-05T09:15:19.670Z,568.13
2019-05-05T09:16:19.685Z,646.88
2019-05-05T09:19:19.921Z,894.38
2019-05-05T09:20:19.772Z,472.50
2019-05-05T09:21:25.011Z,444.38
2019-05-05T09:22:20.328Z,450.00
2019-05-05T09:23:19.567Z,444.38
2019-05-05T09:24:19.610Z,427.50
2019-05-05T09:25:19.533Z,438.75
2019-05-05T09:26:19.838Z,455.63
2019-05-05T09:27:19.507Z,466.88
2019-05-05T09:28:19.478Z,478.13
2019-05-05T09:29:19.470Z,489.38
2019-05-05T09:30:19.446Z,523.13
2019-05-05T09:32:19.467Z,630.00
2019-05-05T09:33:19.868Z,686.25
2019-05-05T09:34:19.512Z,905.63
2019-05-05T09:35:19.374Z,888.75
2019-05-05T09:36:19.352Z,933.75
2019-05-05T09:37:19.357Z,2098.13
2019-05-05T09:38:19.537Z,3605.63
2019-05-05T09:39:19.307Z,4353.75
2019-05-05T09:40:19.584Z,4381.88
2019-05-05T09:41:19.288Z,4331.25
2019-05-05T09:42:19.324Z,4657.50
2019-05-05T09:43:19.256Z,4972.50
2019-05-05T09:44:19.244Z,4961.25
2019-05-05T09:45:19.223Z,3307.50
2019-05-05T09:46:19.527Z,883.13
2019-05-05T09:47:19.499Z,680.63
2019-05-05T09:48:19.169Z,669.38
2019-05-05T09:49:19.155Z,697.50
2019-05-05T09:50:19.243Z,720.00
2019-05-05T09:51:19.135Z,596.25
2019-05-05T09:52:19.427Z,545.63
2019-05-05T09:53:19.580Z,489.38
2019-05-05T09:54:19.099Z,461.25
2019-05-05T09:56:19.072Z,455.63
2019-05-05T09:57:19.139Z,461.25
2019-05-05T09:58:19.060Z,472.50
2019-05-05T10:00:19.206Z,500.63
2019-05-05T10:01:19.225Z,517.50
2019-05-05T10:02:19.096Z,534.38
2019-05-05T10:03:18.987Z,540.00
2019-05-05T10:04:19.679Z,551.25
2019-05-05T10:05:20.261Z,573.75
2019-05-05T10:06:19.691Z,613.13
2019-05-05T10:07:19.337Z,675.00
2019-05-05T10:08:19.720Z,770.63
2019-05-05T10:09:19.254Z,860.63
2019-05-05T10:10:19.024Z,978.75
2019-05-05T10:11:19.249Z,1074.38
2019-05-05T10:13:18.835Z,956.25
2019-05-05T10:14:18.896Z,736.88
2019-05-05T10:15:18.808Z,680.63
2019-05-05T10:16:18.855Z,635.63
2019-05-05T10:17:19.089Z,624.38
2019-05-05T10:18:19.893Z,618.75
2019-05-05T10:19:18.752Z,731.25
2019-05-05T10:20:18.846Z,624.38
2019-05-05T10:21:18.796Z,630.00
2019-05-05T10:22:18.734Z,635.63
2019-05-05T10:23:19.051Z,635.63
2019-05-05T10:24:28.674Z,641.25
2019-05-05T10:25:18.813Z,630.00
2019-05-05T10:26:18.664Z,618.75
2019-05-05T10:27:18.632Z,630.00
2019-05-05T10:28:18.793Z,652.50
2019-05-05T10:29:18.909Z,691.88
2019-05-05T10:30:18.653Z,720.00
2019-05-05T10:31:18.584Z,736.88
2019-05-05T10:32:18.571Z,804.38
2019-05-05T10:33:18.612Z,877.50
2019-05-05T10:34:18.525Z,1006.88
2019-05-05T10:35:18.515Z,860.63
2019-05-05T10:36:18.864Z,787.50
2019-05-05T10:37:18.477Z,793.13
2019-05-05T10:38:18.459Z,1327.50
2019-05-05T10:39:18.453Z,1226.25
2019-05-05T10:40:18.936Z,1203.75
2019-05-05T10:41:18.630Z,1170.00
2019-05-05T10:43:18.911Z,1248.75
2019-05-05T10:44:18.724Z,1192.50
2019-05-05T10:45:19.131Z,1333.13
2019-05-05T10:46:18.412Z,1468.13
2019-05-05T10:47:18.728Z,1108.13
2019-05-05T10:48:18.509Z,1001.25
2019-05-05T10:49:18.367Z,916.88
2019-05-05T10:50:18.664Z,866.25
2019-05-05T10:51:18.465Z,883.13
2019-05-05T10:52:18.314Z,956.25
2019-05-05T10:53:18.296Z,1968.75
2019-05-05T10:54:18.260Z,3510.00
2019-05-05T10:55:18.320Z,4415.63
2019-05-05T10:57:18.558Z,4246.88
2019-05-05T10:58:18.323Z,4342.50
2019-05-05T10:59:18.446Z,4078.13
2019-05-05T11:00:18.741Z,3307.50
2019-05-05T11:01:18.285Z,483.75
2019-05-05T11:02:18.399Z,466.88
2019-05-05T11:03:18.477Z,2553.75
2019-05-05T11:04:18.438Z,3110.63
2019-05-05T11:05:18.224Z,3954.38
2019-05-05T11:06:18.249Z,4055.63
2019-05-05T11:07:18.295Z,2520.00
2019-05-05T11:08:18.184Z,658.13
2019-05-05T11:09:18.110Z,618.75
2019-05-05T11:10:18.396Z,545.63
2019-05-05T11:11:18.085Z,641.25
2019-05-05T11:12:18.406Z,4033.13
2019-05-05T11:13:18.075Z,3796.88
2019-05-05T11:14:18.052Z,3875.63
2019-05-05T11:15:18.062Z,3931.88
2019-05-05T11:16:20.346Z,3886.88
2019-05-05T11:17:18.433Z,3830.63
2019-05-05T11:18:18.011Z,3976.88
2019-05-05T11:19:18.194Z,4083.75
2019-05-05T11:20:18.031Z,776.25
2019-05-05T11:21:17.982Z,630.00
2019-05-05T11:24:18.489Z,1254.38
2019-05-05T11:25:17.944Z,2559.38
2019-05-05T11:26:18.011Z,1496.25
2019-05-05T11:27:17.945Z,832.50
2019-05-05T11:28:17.930Z,1006.88
2019-05-05T11:29:17.950Z,905.63
2019-05-05T11:30:17.907Z,1035.00
2019-05-05T11:31:17.937Z,916.88
2019-05-05T11:32:18.002Z,973.13
2019-05-05T11:33:17.983Z,990.00
2019-05-05T11:34:17.913Z,928.13
2019-05-05T11:35:17.869Z,1305.00
2019-05-05T11:36:18.180Z,1237.50
2019-05-05T11:37:17.852Z,1051.88
2019-05-05T11:38:17.856Z,1029.38
2019-05-05T11:39:17.887Z,1012.50
2019-05-05T11:41:17.823Z,1012.50
2019-05-05T11:43:18.195Z,1248.75
2019-05-05T11:45:18.932Z,995.63
2019-05-05T11:46:17.750Z,500.63
2019-05-05T11:47:18.104Z,523.13
2019-05-05T11:48:18.138Z,528.75
2019-05-05T11:49:18.047Z,562.50
2019-05-05T11:50:17.839Z,630.00
2019-05-05T11:51:17.716Z,1192.50
2019-05-05T11:52:17.817Z,1327.50
2019-05-05T11:53:17.886Z,1310.63
2019-05-05T11:54:18.039Z,1012.50
2019-05-05T11:55:17.858Z,1237.50
2019-05-05T11:56:17.968Z,1203.75
2019-05-05T11:57:17.702Z,663.75
2019-05-05T11:59:17.646Z,556.88
2019-05-05T12:00:17.927Z,528.75
2019-05-05T12:01:17.631Z,495.00
2019-05-05T12:02:18.000Z,478.13
2019-05-05T12:03:18.147Z,461.25
2019-05-05T12:04:17.700Z,455.63
2019-05-05T12:05:17.686Z,478.13
2019-05-05T12:06:18.656Z,495.00
2019-05-05T12:07:18.028Z,517.50
2019-05-05T12:08:17.839Z,562.50
2019-05-05T12:09:17.666Z,607.50
2019-05-05T12:10:17.928Z,663.75
2019-05-05T12:11:18.099Z,731.25
2019-05-05T12:12:17.637Z,781.88
2019-05-05T12:13:17.827Z,810.00
2019-05-05T12:14:18.899Z,1186.88
2019-05-05T12:15:17.584Z,1350.00
2019-05-05T12:17:17.571Z,781.88
2019-05-05T12:18:17.639Z,658.13
2019-05-05T12:19:17.554Z,618.75
2019-05-05T12:21:17.994Z,933.75
2019-05-05T12:23:17.495Z,1203.75
2019-05-05T12:24:17.554Z,1265.63
2019-05-05T12:25:27.706Z,922.50
2019-05-05T12:26:17.702Z,793.13
2019-05-05T12:27:18.112Z,720.00
2019-05-05T12:28:17.412Z,742.50
2019-05-05T12:31:17.780Z,731.25
2019-05-05T12:32:17.855Z,573.75
2019-05-05T12:33:17.383Z,534.38
2019-05-05T12:34:20.053Z,517.50
2019-05-05T12:36:17.580Z,2863.13
2019-05-05T12:37:17.960Z,2868.75
2019-05-05T12:38:17.388Z,2930.63
2019-05-05T12:39:17.332Z,2902.50
2019-05-05T12:41:17.404Z,2964.38
2019-05-05T12:42:18.302Z,2947.50
2019-05-05T12:43:17.314Z,2930.63
2019-05-05T12:44:17.395Z,2885.63
2019-05-05T12:45:17.371Z,2913.75
2019-05-05T12:46:17.160Z,3133.13
2019-05-05T12:47:17.453Z,2098.13
2019-05-05T12:48:17.142Z,3262.50
2019-05-05T12:49:18.125Z,888.75
2019-05-05T12:50:17.312Z,1096.88
2019-05-05T12:52:17.288Z,1102.50
2019-05-05T12:53:17.271Z,2891.25
2019-05-05T12:54:18.517Z,916.88
2019-05-05T12:55:20.234Z,2683.13
2019-05-05T12:56:17.112Z,2458.13
2019-05-05T12:57:17.065Z,3133.13
2019-05-05T12:58:17.357Z,2851.88
2019-05-05T12:59:22.228Z,2176.88
2019-05-05T13:00:17.240Z,3031.88
2019-05-05T13:01:17.025Z,2970.00
2019-05-05T13:02:17.012Z,2941.88
2019-05-05T13:03:17.035Z,2857.50
2019-05-05T13:04:17.337Z,2790.00
2019-05-05T13:05:17.023Z,2424.38
2019-05-05T13:06:17.279Z,804.38
2019-05-05T13:07:16.964Z,1001.25
2019-05-05T13:08:16.954Z,635.63
2019-05-05T13:09:17.043Z,590.63
2019-05-05T13:10:16.952Z,669.38
2019-05-05T13:11:17.106Z,433.13
2019-05-05T13:13:17.287Z,298.13
2019-05-05T13:14:17.039Z,253.13
2019-05-05T13:15:16.906Z,219.38
2019-05-05T13:16:16.881Z,202.50
2019-05-05T13:17:17.081Z,180.00
2019-05-05T13:18:16.953Z,157.50
2019-05-05T13:19:17.314Z,140.63
2019-05-05T13:20:16.856Z,135.00
2019-05-05T13:21:16.838Z,129.38
2019-05-05T13:22:16.913Z,135.00
2019-05-05T13:23:17.076Z,140.63
2019-05-05T13:24:16.822Z,151.88
2019-05-05T13:25:17.231Z,163.13
2019-05-05T13:27:19.374Z,180.00
2019-05-05T13:28:16.873Z,191.25
2019-05-05T13:30:16.774Z,208.13
2019-05-05T13:31:17.483Z,225.00
2019-05-05T13:32:16.753Z,247.50
2019-05-05T13:33:17.027Z,264.38
2019-05-05T13:34:16.667Z,275.63
2019-05-05T13:35:16.665Z,298.13
2019-05-05T13:37:17.312Z,348.75
2019-05-05T13:38:16.865Z,393.75
2019-05-05T13:39:16.584Z,438.75
2019-05-05T13:40:16.720Z,421.88
2019-05-05T13:41:16.596Z,427.50
2019-05-05T13:42:16.586Z,556.88
2019-05-05T13:43:16.621Z,433.13
2019-05-05T13:44:16.869Z,523.13
2019-05-05T13:45:16.576Z,562.50
2019-05-05T13:46:16.518Z,472.50
2019-05-05T13:47:16.568Z,455.63
2019-05-05T13:48:16.462Z,528.75
2019-05-05T13:49:16.565Z,585.00
2019-05-05T13:50:16.513Z,551.25
2019-05-05T13:51:16.999Z,652.50
2019-05-05T13:52:17.017Z,1113.75
2019-05-05T13:53:16.359Z,1130.63
2019-05-05T13:54:16.438Z,860.63
2019-05-05T13:55:16.519Z,1282.50
2019-05-05T13:56:18.084Z,545.63
2019-05-05T13:57:16.314Z,1344.38
2019-05-05T13:58:16.605Z,787.50
2019-05-05T13:59:16.367Z,663.75
2019-05-05T14:00:16.245Z,686.25
2019-05-05T14:01:16.243Z,1051.88
2019-05-05T14:02:16.226Z,720.00
2019-05-05T14:03:16.215Z,658.13
2019-05-05T14:04:16.477Z,675.00
2019-05-05T14:05:16.429Z,1085.63
2019-05-05T14:07:16.170Z,1271.25
2019-05-05T14:08:16.136Z,748.13
2019-05-05T14:09:16.126Z,905.63
2019-05-05T14:10:16.125Z,1828.13
2019-05-05T14:12:16.559Z,1243.13
2019-05-05T14:13:16.079Z,1614.38
2019-05-05T14:14:16.088Z,1395.00
2019-05-05T14:15:16.075Z,1113.75